createdAt,value
2022-12-26T00:02:01.569Z,95.34
2022-12-26T00:04:52.281Z,95.50
2022-12-26T00:07:15.286Z,95.61
2022-12-26T00:09:42.019Z,95.93
2022-12-26T00:12:08.719Z,95.68
2022-12-26T00:14:35.555Z,95.64
2022-12-26T00:17:02.260Z,95.64
2022-12-26T00:19:28.961Z,95.77
2022-12-26T00:21:57.551Z,95.70
2022-12-26T00:24:24.281Z,95.51
2022-12-26T00:26:50.991Z,95.30
2022-12-26T00:29:17.731Z,95.11
2022-12-26T00:31:44.413Z,95.15
2022-12-26T00:34:11.136Z,95.11
2022-12-26T00:36:37.824Z,94.89
2022-12-26T00:39:07.604Z,95.04
2022-12-26T00:41:34.366Z,94.73
2022-12-26T00:44:01.153Z,94.79
2022-12-26T00:46:27.903Z,94.64
2022-12-26T00:48:54.811Z,94.44
2022-12-26T00:51:21.786Z,94.62
2022-12-26T00:53:48.642Z,94.90
2022-12-26T00:56:15.850Z,95.08
2022-12-26T00:58:42.626Z,94.82
2022-12-26T01:01:14.718Z,94.99
2022-12-26T01:03:42.030Z,95.22
2022-12-26T01:06:08.811Z,95.10
2022-12-26T01:08:35.550Z,95.29
2022-12-26T01:11:03.489Z,95.35
2022-12-26T01:13:30.188Z,95.47
2022-12-26T01:15:56.997Z,95.60
2022-12-26T01:18:23.647Z,95.48
2022-12-26T01:20:50.331Z,95.40
2022-12-26T01:23:17.315Z,95.30
2022-12-26T01:26:16.872Z,95.37
2022-12-26T01:28:31.030Z,95.03
2022-12-26T01:31:01.684Z,95.09
2022-12-26T01:33:28.370Z,95.07
2022-12-26T01:35:55.095Z,95.08
2022-12-26T01:38:21.944Z,94.85
2022-12-26T01:40:49.171Z,95.02
2022-12-26T01:43:16.059Z,95.05
2022-12-26T01:45:43.371Z,95.01
2022-12-26T01:48:19.980Z,95.20
2022-12-26T01:50:52.521Z,95.17
2022-12-26T01:53:21.709Z,95.66
2022-12-26T01:55:52.508Z,95.62
2022-12-26T01:58:23.354Z,95.76
2022-12-26T02:00:50.269Z,95.55
2022-12-26T02:03:35.589Z,95.61
2022-12-26T02:06:02.330Z,95.30
2022-12-26T02:08:31.109Z,95.33
2022-12-26T02:11:06.531Z,95.25
2022-12-26T02:13:35.137Z,95.29
2022-12-26T02:16:03.354Z,95.25
2022-12-26T02:18:30.054Z,95.25
2022-12-26T02:21:11.014Z,95.05
2022-12-26T02:23:37.694Z,95.32
2022-12-26T02:26:30.611Z,95.12
2022-12-26T02:29:21.541Z,94.93
2022-12-26T02:32:06.486Z,95.10
2022-12-26T02:34:51.628Z,94.89
2022-12-26T02:37:36.606Z,94.98
2022-12-26T02:40:37.071Z,94.77
2022-12-26T02:43:10.643Z,94.86
2022-12-26T02:46:02.554Z,94.63
2022-12-26T02:48:40.143Z,94.71
2022-12-26T02:51:51.832Z,94.59
2022-12-26T02:54:55.660Z,94.49
2022-12-26T02:57:43.099Z,94.56
2022-12-26T03:00:38.118Z,94.67
2022-12-26T03:03:36.198Z,94.36
2022-12-26T03:06:49.641Z,94.43
2022-12-26T03:09:40.804Z,94.39
2022-12-26T03:12:40.011Z,94.44
2022-12-26T03:15:10.761Z,94.10
2022-12-26T03:17:55.394Z,94.29
2022-12-26T03:20:23.610Z,94.27
2022-12-26T03:23:03.611Z,93.95
2022-12-26T03:25:49.138Z,94.20
2022-12-26T03:28:16.125Z,94.00
2022-12-26T03:30:48.999Z,94.02
2022-12-26T03:33:34.982Z,94.05
2022-12-26T03:36:01.671Z,93.81
2022-12-26T03:38:55.299Z,93.65
2022-12-26T03:42:11.847Z,93.71
2022-12-26T03:45:06.841Z,93.85
2022-12-26T03:48:02.442Z,93.61
2022-12-26T03:50:59.497Z,93.59
2022-12-26T03:53:50.387Z,93.68
2022-12-26T03:56:41.836Z,93.88
2022-12-26T03:59:32.356Z,93.90
2022-12-26T04:02:20.247Z,93.90
2022-12-26T04:05:05.770Z,93.97
2022-12-26T04:07:56.457Z,93.88
2022-12-26T04:10:46.688Z,93.97
2022-12-26T04:13:41.227Z,93.91
2022-12-26T04:16:40.405Z,94.00
2022-12-26T04:19:27.355Z,94.01
2022-12-26T04:22:26.117Z,93.96
2022-12-26T04:25:48.700Z,94.05
2022-12-26T04:28:36.450Z,93.97
2022-12-26T04:31:35.783Z,93.90
2022-12-26T04:34:22.308Z,93.91
2022-12-26T04:37:12.815Z,93.83
2022-12-26T04:39:58.315Z,93.84
2022-12-26T04:42:43.773Z,93.59
2022-12-26T04:45:10.783Z,93.74
2022-12-26T04:47:37.502Z,93.63
2022-12-26T04:50:13.617Z,93.54
2022-12-26T04:52:58.982Z,93.54
2022-12-26T04:55:27.978Z,93.38
2022-12-26T04:57:54.765Z,93.46
2022-12-26T05:00:22.120Z,93.63
2022-12-26T05:03:07.567Z,93.56
2022-12-26T05:05:58.195Z,93.32
2022-12-26T05:08:47.063Z,93.49
2022-12-26T05:11:13.766Z,93.48
2022-12-26T05:13:40.505Z,93.48
2022-12-26T05:16:26.402Z,93.29
2022-12-26T05:19:12.311Z,93.20
2022-12-26T05:21:57.935Z,93.26
2022-12-26T05:24:45.042Z,92.96
2022-12-26T05:27:31.455Z,93.06
2022-12-26T05:29:58.237Z,93.05
2022-12-26T05:32:43.533Z,93.02
2022-12-26T05:35:10.560Z,92.99
2022-12-26T05:37:37.269Z,92.80
2022-12-26T05:40:04.508Z,92.85
2022-12-26T05:42:31.266Z,92.73
2022-12-26T05:44:58.077Z,92.75
2022-12-26T05:47:24.711Z,92.52
2022-12-26T05:49:52.783Z,92.57
2022-12-26T05:52:19.483Z,92.71
2022-12-26T05:54:46.167Z,92.68
2022-12-26T05:57:12.826Z,92.60
2022-12-26T05:59:39.568Z,92.59
2022-12-26T06:02:06.378Z,92.79
2022-12-26T06:04:34.725Z,92.60
2022-12-26T06:07:01.425Z,92.83
2022-12-26T06:09:28.190Z,92.76
2022-12-26T06:11:54.915Z,92.71
2022-12-26T06:14:21.677Z,92.90
2022-12-26T06:16:48.408Z,93.08
2022-12-26T06:19:15.163Z,93.25
2022-12-26T06:21:41.875Z,93.11
2022-12-26T06:24:08.551Z,93.18
2022-12-26T06:26:35.280Z,93.02
2022-12-26T06:29:01.957Z,92.97
2022-12-26T06:31:28.670Z,93.19
2022-12-26T06:33:56.625Z,93.23
2022-12-26T06:36:24.047Z,92.93
2022-12-26T06:38:50.856Z,92.94
2022-12-26T06:41:18.092Z,93.06
2022-12-26T06:43:44.901Z,93.01
2022-12-26T06:46:12.604Z,93.10
2022-12-26T06:48:39.603Z,92.84
2022-12-26T06:51:07.847Z,93.14
2022-12-26T06:53:34.754Z,93.05
2022-12-26T06:56:15.723Z,92.84
2022-12-26T06:58:42.576Z,92.97
2022-12-26T07:01:10.372Z,92.91
2022-12-26T07:03:37.529Z,93.00
2022-12-26T07:06:05.414Z,92.99
2022-12-26T07:08:32.338Z,92.84
2022-12-26T07:10:58.941Z,92.88
2022-12-26T07:13:25.619Z,92.70
2022-12-26T07:15:52.292Z,92.78
2022-12-26T07:18:19.457Z,92.69
2022-12-26T07:20:46.247Z,92.53
2022-12-26T07:23:13.031Z,92.55
2022-12-26T07:25:39.883Z,92.32
2022-12-26T07:28:06.566Z,92.20
2022-12-26T07:30:33.388Z,92.29
2022-12-26T07:33:00.013Z,92.24
2022-12-26T07:35:26.722Z,92.20
2022-12-26T07:37:53.537Z,91.96
2022-12-26T07:40:20.210Z,92.03
2022-12-26T07:42:46.907Z,91.99
2022-12-26T07:45:13.694Z,91.81
2022-12-26T07:47:40.404Z,91.73
2022-12-26T07:50:07.627Z,91.83
2022-12-26T07:52:34.363Z,91.82
2022-12-26T07:55:01.146Z,91.64
2022-12-26T07:57:48.317Z,91.76
2022-12-26T08:00:15.122Z,91.94
2022-12-26T08:02:42.073Z,92.04
2022-12-26T08:05:08.892Z,91.92
2022-12-26T08:07:35.665Z,91.98
2022-12-26T08:10:02.375Z,92.19
2022-12-26T08:12:29.072Z,92.11
2022-12-26T08:14:55.809Z,92.07
2022-12-26T08:17:22.762Z,92.35
2022-12-26T08:19:49.476Z,92.38
2022-12-26T08:22:16.224Z,92.30
2022-12-26T08:24:42.974Z,92.33
2022-12-26T08:27:10.732Z,92.03
2022-12-26T08:29:37.456Z,91.99
2022-12-26T08:32:04.350Z,92.01
2022-12-26T08:34:34.372Z,91.96
2022-12-26T08:37:01.391Z,91.93
2022-12-26T08:39:28.113Z,91.78
2022-12-26T08:41:54.813Z,91.78
2022-12-26T08:44:29.322Z,91.82
2022-12-26T08:46:56.198Z,91.73
2022-12-26T08:49:23.007Z,91.95
2022-12-26T08:51:49.713Z,91.78
2022-12-26T08:54:16.435Z,91.62
2022-12-26T08:56:43.117Z,91.44
2022-12-26T08:59:09.915Z,91.46
2022-12-26T09:01:36.639Z,91.23
2022-12-26T09:04:03.957Z,91.26
2022-12-26T09:06:35.298Z,91.24
2022-12-26T09:27:28.855Z,89.93
2022-12-26T09:29:55.690Z,89.16
2022-12-26T09:32:23.051Z,88.85
2022-12-26T09:34:49.788Z,88.59
2022-12-26T09:37:16.698Z,88.86
2022-12-26T09:39:43.266Z,88.93
2022-12-26T09:42:40.370Z,89.05
2022-12-26T09:45:15.998Z,89.07
2022-12-26T09:48:03.515Z,89.32
2022-12-26T09:50:36.052Z,89.48
2022-12-26T09:53:25.349Z,89.43
2022-12-26T09:55:52.990Z,89.49
2022-12-26T09:58:26.364Z,89.45
2022-12-26T10:00:58.755Z,89.50
2022-12-26T10:03:25.417Z,89.43
2022-12-26T10:05:58.253Z,89.48
2022-12-26T10:08:34.337Z,89.61
2022-12-26T10:11:02.145Z,89.39
2022-12-26T10:13:51.443Z,89.22
2022-12-26T10:16:21.902Z,89.18
2022-12-26T10:19:03.508Z,89.14
2022-12-26T10:21:30.216Z,89.28
2022-12-26T10:24:01.438Z,89.20
2022-12-26T10:26:36.675Z,89.26
2022-12-26T10:29:09.501Z,88.87
2022-12-26T10:31:43.022Z,88.93
2022-12-26T10:34:35.227Z,89.09
2022-12-26T10:37:31.665Z,89.12
2022-12-26T10:40:17.682Z,88.88
2022-12-26T10:42:45.692Z,88.97
2022-12-26T10:45:16.427Z,88.91
2022-12-26T10:47:47.060Z,89.12
2022-12-26T10:50:22.509Z,89.05
2022-12-26T10:52:52.235Z,89.20
2022-12-26T10:55:29.302Z,89.36
2022-12-26T10:57:57.081Z,89.18
2022-12-26T11:00:24.763Z,89.22
2022-12-26T11:03:08.124Z,89.24
2022-12-26T11:06:06.577Z,89.28
2022-12-26T11:08:43.335Z,89.47
2022-12-26T11:11:46.585Z,89.51
2022-12-26T11:14:34.105Z,89.66
2022-12-26T11:17:07.651Z,89.60
2022-12-26T11:19:37.263Z,89.60
2022-12-26T11:22:28.882Z,89.84
2022-12-26T11:25:11.001Z,89.81
2022-12-26T11:27:40.490Z,89.85
2022-12-26T11:30:14.589Z,89.68
2022-12-26T11:32:42.444Z,89.47
2022-12-26T11:35:23.180Z,89.42
2022-12-26T11:37:52.856Z,89.64
2022-12-26T11:41:06.808Z,89.63
2022-12-26T11:43:33.509Z,89.31
2022-12-26T11:46:00.177Z,89.27
2022-12-26T11:48:26.943Z,89.20
2022-12-26T11:50:53.809Z,89.13
2022-12-26T11:53:20.926Z,89.46
2022-12-26T11:55:59.213Z,89.05
2022-12-26T11:58:29.448Z,89.11
2022-12-26T12:00:59.169Z,88.96
2022-12-26T12:03:48.626Z,88.89
2022-12-26T12:06:41.214Z,88.87
2022-12-26T12:09:20.887Z,88.69
2022-12-26T12:12:18.699Z,88.83
2022-12-26T12:15:04.075Z,89.04
2022-12-26T12:17:48.131Z,89.09
2022-12-26T12:20:38.939Z,89.17
2022-12-26T12:23:17.865Z,89.19
2022-12-26T12:25:50.494Z,89.39
2022-12-26T12:28:42.372Z,89.27
2022-12-26T12:31:21.377Z,89.17
2022-12-26T12:34:13.530Z,89.19
2022-12-26T12:36:55.492Z,89.08
2022-12-26T12:39:48.047Z,89.06
2022-12-26T12:42:24.094Z,88.64
2022-12-26T12:45:32.838Z,88.64
2022-12-26T12:48:23.884Z,88.25
2022-12-26T12:51:12.520Z,88.43
2022-12-26T12:53:54.650Z,88.33
2022-12-26T12:56:46.441Z,88.72
2022-12-26T12:59:28.392Z,88.51
2022-12-26T13:01:57.766Z,88.80
2022-12-26T13:04:29.274Z,88.94
2022-12-26T13:07:09.639Z,88.99
2022-12-26T13:09:50.993Z,89.38
2022-12-26T13:12:20.588Z,89.41
2022-12-26T13:14:50.593Z,89.38
2022-12-26T13:17:25.219Z,89.64
2022-12-26T13:20:16.172Z,89.59
2022-12-26T13:23:13.655Z,89.52
2022-12-26T13:25:44.378Z,89.84
2022-12-26T13:28:14.508Z,90.09
2022-12-26T13:30:41.207Z,90.09
2022-12-26T13:33:13.176Z,90.39
2022-12-26T13:36:00.146Z,90.40
2022-12-26T13:38:55.749Z,90.77
2022-12-26T13:41:41.232Z,90.59
2022-12-26T13:44:20.618Z,90.72
2022-12-26T13:46:47.349Z,90.78
2022-12-26T13:49:36.108Z,90.88
2022-12-26T13:52:11.878Z,91.28
2022-12-26T13:55:07.383Z,91.47
2022-12-26T13:57:42.579Z,91.50
2022-12-26T14:00:16.687Z,91.60
2022-12-26T14:05:58.916Z,92.06
2022-12-26T14:08:37.398Z,92.37
2022-12-26T14:11:22.580Z,92.55
2022-12-26T14:13:49.309Z,92.41
2022-12-26T14:16:31.255Z,92.68
2022-12-26T14:19:10.707Z,93.09
2022-12-26T14:21:46.018Z,92.84
2022-12-26T14:24:12.675Z,93.08
2022-12-26T14:26:54.766Z,93.20
2022-12-26T14:29:33.177Z,93.30
2022-12-26T14:32:35.628Z,93.46
2022-12-26T14:35:25.127Z,93.53
2022-12-26T14:38:20.876Z,93.57
2022-12-26T14:41:31.769Z,93.43
2022-12-26T14:44:09.571Z,94.00
2022-12-26T14:46:38.747Z,93.91
2022-12-26T14:49:35.401Z,94.24
2022-12-26T14:52:24.849Z,94.11
2022-12-26T14:54:55.299Z,94.41
2022-12-26T14:57:50.053Z,94.35
2022-12-26T15:00:22.729Z,94.70
2022-12-26T15:02:58.560Z,94.90
2022-12-26T15:05:26.269Z,94.86
2022-12-26T15:08:20.416Z,94.66
2022-12-26T15:10:58.495Z,94.43
2022-12-26T15:14:00.853Z,94.57
2022-12-26T15:16:46.672Z,94.65
2022-12-26T15:19:41.976Z,94.62
2022-12-26T15:22:45.447Z,94.76
2022-12-26T15:25:49.909Z,94.80
2022-12-26T15:28:34.700Z,94.79
2022-12-26T15:31:45.950Z,94.79
2022-12-26T15:34:40.652Z,94.69
2022-12-26T15:37:39.648Z,94.61
2022-12-26T15:40:14.978Z,94.97
2022-12-26T15:43:05.834Z,95.13
2022-12-26T15:45:48.462Z,95.38
2022-12-26T15:48:39.891Z,95.46
2022-12-26T15:51:18.637Z,95.53
2022-12-26T15:54:20.719Z,95.57
2022-12-26T15:57:18.685Z,95.75
2022-12-26T15:59:52.047Z,95.71
2022-12-26T16:02:28.144Z,95.95
2022-12-26T16:05:10.785Z,96.06
2022-12-26T16:07:50.793Z,95.86
2022-12-26T16:10:30.770Z,96.08
2022-12-26T16:13:03.493Z,96.17
2022-12-26T16:15:30.601Z,96.32
2022-12-26T16:18:13.621Z,96.05
2022-12-26T16:20:59.022Z,96.30
2022-12-26T16:23:27.073Z,96.03
2022-12-26T16:25:55.137Z,96.18
2022-12-26T16:28:41.101Z,96.15
2022-12-26T16:31:07.914Z,96.35
2022-12-26T16:33:41.366Z,96.26
2022-12-26T16:36:09.067Z,96.07
2022-12-26T16:38:35.784Z,96.25
2022-12-26T16:41:02.471Z,95.99
2022-12-26T16:43:36.293Z,96.10
2022-12-26T16:46:05.018Z,95.94
2022-12-26T16:48:32.601Z,96.08
2022-12-26T16:51:07.428Z,96.17
2022-12-26T16:53:37.188Z,95.90
2022-12-26T16:56:29.279Z,95.96
2022-12-26T16:59:06.646Z,96.05
2022-12-26T17:01:33.399Z,95.75
2022-12-26T17:04:15.509Z,96.00
2022-12-26T17:06:49.078Z,96.03
2022-12-26T17:09:17.187Z,96.00
2022-12-26T17:11:55.176Z,95.95
2022-12-26T17:14:25.147Z,96.05
2022-12-26T17:17:02.375Z,96.09
2022-12-26T17:19:31.778Z,96.16
2022-12-26T17:22:21.779Z,96.21
2022-12-26T17:24:49.708Z,96.12
2022-12-26T17:27:24.354Z,96.36
2022-12-26T17:29:55.399Z,96.58
2022-12-26T17:32:31.145Z,96.71
2022-12-26T17:35:15.002Z,96.69
2022-12-26T17:37:41.802Z,96.75
2022-12-26T17:40:14.548Z,96.77
2022-12-26T17:42:53.152Z,97.33
2022-12-26T17:45:26.829Z,97.24
2022-12-26T17:47:54.288Z,97.18
2022-12-26T17:50:21.989Z,97.22
2022-12-26T17:52:48.740Z,97.54
2022-12-26T17:55:19.748Z,97.38
2022-12-26T17:57:46.785Z,97.58
2022-12-26T18:00:18.496Z,97.79
2022-12-26T18:02:45.305Z,98.08
2022-12-26T18:05:12.010Z,98.09
2022-12-26T18:07:38.923Z,98.50
2022-12-26T18:10:06.437Z,98.42
2022-12-26T18:12:33.123Z,98.69
2022-12-26T18:15:02.502Z,98.90
2022-12-26T18:17:31.759Z,98.82
2022-12-26T18:19:58.946Z,99.12
2022-12-26T18:22:25.660Z,99.37
2022-12-26T18:24:52.345Z,99.36
2022-12-26T18:27:23.286Z,99.61
2022-12-26T18:29:50.391Z,99.70
2022-12-26T18:32:25.281Z,99.66
2022-12-26T18:34:52.323Z,99.78
2022-12-26T18:37:19.681Z,99.92
2022-12-26T18:39:46.398Z,99.80
2022-12-26T18:42:14.227Z,99.90
2022-12-26T18:44:42.131Z,99.83
2022-12-26T18:47:17.482Z,99.98
2022-12-26T18:49:44.567Z,99.98
2022-12-26T18:52:11.680Z,99.98
2022-12-26T18:54:44.294Z,100.00
2022-12-26T18:57:15.492Z,100.00
2022-12-26T18:59:42.262Z,100.00
2022-12-26T19:02:15.287Z,100.00
2022-12-26T19:04:42.064Z,100.00
2022-12-26T19:07:09.247Z,100.00
2022-12-26T19:09:37.193Z,100.00
2022-12-26T19:12:04.079Z,100.00
2022-12-26T19:14:30.716Z,100.00
2022-12-26T19:16:57.419Z,100.00
2022-12-26T19:19:29.450Z,100.00
2022-12-26T19:21:56.373Z,100.00
2022-12-26T19:24:23.304Z,100.00
2022-12-26T19:26:49.962Z,100.00
2022-12-26T19:29:16.701Z,100.00
2022-12-26T19:31:43.600Z,100.00
2022-12-26T19:34:10.428Z,100.00
2022-12-26T19:36:37.487Z,100.00
2022-12-26T19:39:07.210Z,100.00
2022-12-26T19:41:33.911Z,100.00
2022-12-26T19:44:01.136Z,100.00
2022-12-26T19:46:28.421Z,100.00
2022-12-26T19:48:55.332Z,100.00
2022-12-26T19:51:22.211Z,100.00
2022-12-26T19:53:49.045Z,100.00
2022-12-26T19:56:15.760Z,100.00
2022-12-26T19:58:42.602Z,100.00
2022-12-26T20:01:09.877Z,100.00
2022-12-26T20:03:36.902Z,100.00
2022-12-26T20:06:14.909Z,100.00
2022-12-26T20:08:41.951Z,100.00
2022-12-26T20:11:12.463Z,100.00
2022-12-26T20:13:40.083Z,100.00
2022-12-26T20:16:11.404Z,100.00
2022-12-26T20:18:50.695Z,99.98
2022-12-26T20:21:17.423Z,100.00
2022-12-26T20:23:44.248Z,99.95
2022-12-26T20:26:19.051Z,99.91
2022-12-26T20:28:46.190Z,99.92
2022-12-26T20:31:15.299Z,100.00
2022-12-26T20:33:43.223Z,99.89
2022-12-26T20:36:17.986Z,99.85
2022-12-26T20:38:44.812Z,99.92
2022-12-26T20:41:11.570Z,99.86
2022-12-26T20:43:38.422Z,99.79
2022-12-26T20:46:09.181Z,99.93
2022-12-26T20:48:36.086Z,99.84
2022-12-26T20:51:04.558Z,99.80
2022-12-26T20:53:31.495Z,99.78
2022-12-26T20:55:58.283Z,99.71
2022-12-26T20:58:26.471Z,99.71
2022-12-26T21:01:00.691Z,99.62
2022-12-26T21:03:28.647Z,99.47
2022-12-26T21:05:55.276Z,99.55
2022-12-26T21:08:22.010Z,99.53
2022-12-26T21:10:48.856Z,99.56
2022-12-26T21:13:15.538Z,99.48
2022-12-26T21:15:42.215Z,99.36
2022-12-26T21:18:08.933Z,99.33
2022-12-26T21:20:36.416Z,99.27
2022-12-26T21:23:03.082Z,99.33
2022-12-26T21:25:29.816Z,99.16
2022-12-26T21:27:59.378Z,99.20
2022-12-26T21:30:26.299Z,98.94
2022-12-26T21:34:26.166Z,99.00
2022-12-26T21:37:11.619Z,99.06
2022-12-26T21:39:38.489Z,98.84
2022-12-26T21:42:05.550Z,98.66
2022-12-26T21:44:32.368Z,98.84
2022-12-26T21:46:59.087Z,98.58
2022-12-26T21:49:25.848Z,98.67
2022-12-26T21:51:52.560Z,98.61
2022-12-26T21:54:40.019Z,98.72
2022-12-26T21:57:11.448Z,98.75
2022-12-26T21:59:56.442Z,98.47
2022-12-26T22:03:00.174Z,98.49
2022-12-26T22:05:28.093Z,98.61
2022-12-26T22:07:56.395Z,98.37
2022-12-26T22:10:42.691Z,98.42
2022-12-26T22:13:09.467Z,98.47
2022-12-26T22:16:00.104Z,98.39
2022-12-26T22:18:27.190Z,98.13
2022-12-26T22:20:54.074Z,98.31
2022-12-26T22:23:20.685Z,98.33
2022-12-26T22:25:56.923Z,98.35
2022-12-26T22:28:23.848Z,98.60
2022-12-26T22:30:50.778Z,98.46
2022-12-26T22:33:18.170Z,98.75
2022-12-26T22:35:45.040Z,98.66
2022-12-26T22:38:11.792Z,98.60
2022-12-26T22:40:38.467Z,98.72
2022-12-26T22:43:05.257Z,98.52
2022-12-26T22:45:31.937Z,98.52
2022-12-26T22:47:58.595Z,98.65
2022-12-26T22:50:25.280Z,98.80
2022-12-26T22:52:52.121Z,98.75
2022-12-26T22:55:18.761Z,98.69
2022-12-26T22:57:49.657Z,98.74
2022-12-26T23:00:19.278Z,98.78
2022-12-26T23:02:46.044Z,98.87
2022-12-26T23:05:12.958Z,98.86
2022-12-26T23:07:39.959Z,99.01
2022-12-26T23:10:07.411Z,99.04
2022-12-26T23:12:46.250Z,98.96
2022-12-26T23:15:17.121Z,99.11
2022-12-26T23:18:06.447Z,99.00
2022-12-26T23:20:53.831Z,98.96
2022-12-26T23:23:21.415Z,99.15
2022-12-26T23:25:48.223Z,99.00
2022-12-26T23:28:33.638Z,99.16
2022-12-26T23:31:03.326Z,99.07
2022-12-26T23:33:31.609Z,99.41
2022-12-26T23:35:58.620Z,99.13
2022-12-26T23:38:25.366Z,99.21
2022-12-26T23:40:52.216Z,99.53
2022-12-26T23:43:18.917Z,99.37
2022-12-26T23:45:45.732Z,99.55
2022-12-26T23:48:12.693Z,99.39
2022-12-26T23:50:39.599Z,99.32
2022-12-26T23:53:06.407Z,99.50
2022-12-26T23:55:33.450Z,99.65
2022-12-26T23:58:00.219Z,99.58
